KBOW

Bartow Municipal Airport

Bartow, Florida, USA
METAR KBOW 201035Z AUTO 27011KT 10SM SCT017 SCT021 OVC030 17/17 A2980 RMK AO2
Observed Flight Rules
Jan-20 @ 10:35 UTC (23 minutes ago) Marginal Visual Flight Rules
Wind Visibility Clouds
270° at 11 knots 10 miles
  • Scattered at 1,700' AGL
  • Scattered at 2,100' AGL
  • Overcast at 3,000' AGL
Temperatures Readings
Current 17°C / 63°F
Dewpoint 17°C / 63°F
Humidity 100%
Altimeter 29.8" Hg
Pressure 1009.12 hPa
Elevation 39
METAR KBOW 201035Z AUTO 27011KT 10SM SCT017 SCT021 OVC030 17/17 A2980 RMK AO2
Observed Flight Rules
Jan-20 @ 10:35 UTC
(23 minutes ago)
MVFR
Wind Visibility
270° at 11 knots 10 miles
Clouds
  • Scattered at 1,700' AGL
  • Scattered at 2,100' AGL
  • Overcast at 3,000' AGL
Temperature Dewpoint
17°C / 63°F 17°C / 63°F
Humidity Altimeter Pressure
100% 29.8" Hg 1009.12 hPa